sensor_id;sensor_type;location;lat;lon;timestamp;pressure;altitude;pressure_sealevel;temperature;humidity
28606;BME280;46498;49.968;7.754;2023-06-26T00:01:42;-18907.00;;;19.75;nan
28606;BME280;46498;49.968;7.754;2023-06-26T00:06:43;-18904.00;;;19.68;nan
28606;BME280;46498;49.968;7.754;2023-06-26T00:11:44;-18900.00;;;19.55;nan
28606;BME280;46498;49.968;7.754;2023-06-26T00:16:44;-18900.00;;;19.53;nan
28606;BME280;46498;49.968;7.754;2023-06-26T00:21:45;-18898.00;;;19.47;nan
28606;BME280;46498;49.968;7.754;2023-06-26T00:26:48;-18898.00;;;19.49;nan
28606;BME280;46498;49.968;7.754;2023-06-26T00:31:49;-18899.00;;;19.51;nan
28606;BME280;46498;49.968;7.754;2023-06-26T00:36:50;-18894.00;;;19.37;nan
28606;BME280;46498;49.968;7.754;2023-06-26T00:41:51;-18889.00;;;19.20;nan
28606;BME280;46498;49.968;7.754;2023-06-26T00:46:54;-18892.00;;;19.29;nan
28606;BME280;46498;49.968;7.754;2023-06-26T00:51:55;-18887.00;;;19.14;nan
28606;BME280;46498;49.968;7.754;2023-06-26T00:56:56;-18880.00;;;18.91;nan
28606;BME280;46498;49.968;7.754;2023-06-26T01:01:57;-18881.00;;;18.96;nan
28606;BME280;46498;49.968;7.754;2023-06-26T01:06:58;-18881.00;;;18.93;nan
28606;BME280;46498;49.968;7.754;2023-06-26T01:11:59;-18880.00;;;18.91;nan
28606;BME280;46498;49.968;7.754;2023-06-26T01:17:00;-18871.00;;;18.63;nan
28606;BME280;46498;49.968;7.754;2023-06-26T01:30:41;-18867.00;;;18.52;nan
28606;BME280;46498;49.968;7.754;2023-06-26T01:35:42;-18867.00;;;18.51;nan
28606;BME280;46498;49.968;7.754;2023-06-26T01:40:44;-18867.00;;;18.49;nan
28606;BME280;46498;49.968;7.754;2023-06-26T01:45:45;-18870.00;;;18.59;nan
28606;BME280;46498;49.968;7.754;2023-06-26T01:50:48;-18872.00;;;18.66;nan
28606;BME280;46498;49.968;7.754;2023-06-26T01:56:06;-18875.00;;;18.74;nan
28606;BME280;46498;49.968;7.754;2023-06-26T02:01:10;-18873.00;;;18.69;nan
28606;BME280;46498;49.968;7.754;2023-06-26T02:06:12;-18870.00;;;18.59;nan
28606;BME280;46498;49.968;7.754;2023-06-26T02:11:12;-18868.00;;;18.52;nan
28606;BME280;46498;49.968;7.754;2023-06-26T02:16:14;-18864.00;;;18.41;nan
28606;BME280;46498;49.968;7.754;2023-06-26T02:21:16;-18865.00;;;18.46;nan
28606;BME280;46498;49.968;7.754;2023-06-26T02:26:16;-18864.00;;;18.40;nan
28606;BME280;46498;49.968;7.754;2023-06-26T02:31:17;-18860.00;;;18.27;nan
28606;BME280;46498;49.968;7.754;2023-06-26T02:36:18;-18862.00;;;18.36;nan
28606;BME280;46498;49.968;7.754;2023-06-26T02:41:19;-18858.00;;;18.21;nan
28606;BME280;46498;49.968;7.754;2023-06-26T02:46:20;-18855.00;;;18.13;nan
28606;BME280;46498;49.968;7.754;2023-06-26T02:51:21;-18855.00;;;18.14;nan
28606;BME280;46498;49.968;7.754;2023-06-26T02:56:22;-18852.00;;;18.04;nan
28606;BME280;46498;49.968;7.754;2023-06-26T03:01:23;-18850.00;;;17.97;nan
28606;BME280;46498;49.968;7.754;2023-06-26T03:06:24;-18850.00;;;17.96;nan
28606;BME280;46498;49.968;7.754;2023-06-26T03:11:25;-18852.00;;;18.02;nan
28606;BME280;46498;49.968;7.754;2023-06-26T03:16:26;-18853.00;;;18.06;nan
28606;BME280;46498;49.968;7.754;2023-06-26T03:21:27;-18849.00;;;17.95;nan
28606;BME280;46498;49.968;7.754;2023-06-26T03:26:28;-18849.00;;;17.93;nan
28606;BME280;46498;49.968;7.754;2023-06-26T03:31:30;-18851.00;;;18.01;nan
28606;BME280;46498;49.968;7.754;2023-06-26T03:36:32;-18854.00;;;18.09;nan
28606;BME280;46498;49.968;7.754;2023-06-26T03:41:34;-18855.00;;;18.12;nan
28606;BME280;46498;49.968;7.754;2023-06-26T03:46:35;-18853.00;;;18.08;nan
28606;BME280;46498;49.968;7.754;2023-06-26T03:51:35;-18854.00;;;18.11;nan
28606;BME280;46498;49.968;7.754;2023-06-26T03:56:36;-18855.00;;;18.13;nan
28606;BME280;46498;49.968;7.754;2023-06-26T04:01:39;-18856.00;;;18.15;nan
28606;BME280;46498;49.968;7.754;2023-06-26T04:06:40;-18860.00;;;18.27;nan
28606;BME280;46498;49.968;7.754;2023-06-26T04:11:41;-18864.00;;;18.41;nan
28606;BME280;46498;49.968;7.754;2023-06-26T04:16:41;-18875.00;;;18.74;nan
28606;BME280;46498;49.968;7.754;2023-06-26T04:21:42;-18888.00;;;19.15;nan
28606;BME280;46498;49.968;7.754;2023-06-26T04:26:43;-18898.00;;;19.48;nan
28606;BME280;46498;49.968;7.754;2023-06-26T04:31:46;-18903.00;;;19.63;nan
28606;BME280;46498;49.968;7.754;2023-06-26T04:36:46;-18912.00;;;19.92;nan
28606;BME280;46498;49.968;7.754;2023-06-26T04:41:48;-18920.00;;;20.17;nan
28606;BME280;46498;49.968;7.754;2023-06-26T04:46:50;-18930.00;;;20.50;nan
28606;BME280;46498;49.968;7.754;2023-06-26T04:51:52;-18940.00;;;20.79;nan
28606;BME280;46498;49.968;7.754;2023-06-26T04:56:53;-18951.00;;;21.15;nan
28606;BME280;46498;49.968;7.754;2023-06-26T05:01:54;-18963.00;;;21.52;nan
28606;BME280;46498;49.968;7.754;2023-06-26T05:06:55;-18978.00;;;22.00;nan
28606;BME280;46498;49.968;7.754;2023-06-26T05:11:56;-18981.00;;;22.10;nan
28606;BME280;46498;49.968;7.754;2023-06-26T05:16:57;-18987.00;;;22.29;nan
28606;BME280;46498;49.968;7.754;2023-06-26T05:21:58;-18996.00;;;22.58;nan
28606;BME280;46498;49.968;7.754;2023-06-26T05:26:59;-19005.00;;;22.85;nan
28606;BME280;46498;49.968;7.754;2023-06-26T05:32:01;-19012.00;;;23.08;nan
28606;BME280;46498;49.968;7.754;2023-06-26T05:37:03;-19019.00;;;23.31;nan
28606;BME280;46498;49.968;7.754;2023-06-26T05:42:04;-19030.00;;;23.64;nan
28606;BME280;46498;49.968;7.754;2023-06-26T05:47:05;-19037.00;;;23.87;nan
28606;BME280;46498;49.968;7.754;2023-06-26T05:52:07;-19039.00;;;23.93;nan
28606;BME280;46498;49.968;7.754;2023-06-26T05:57:08;-19037.00;;;23.85;nan
28606;BME280;46498;49.968;7.754;2023-06-26T06:02:09;-19039.00;;;23.93;nan
28606;BME280;46498;49.968;7.754;2023-06-26T06:07:10;-19048.00;;;24.20;nan
28606;BME280;46498;49.968;7.754;2023-06-26T06:12:11;-19061.00;;;24.63;nan
28606;BME280;46498;49.968;7.754;2023-06-26T06:17:12;-19070.00;;;24.91;nan
28606;BME280;46498;49.968;7.754;2023-06-26T06:22:13;-19071.00;;;24.93;nan
28606;BME280;46498;49.968;7.754;2023-06-26T06:27:14;-19066.00;;;24.79;nan
28606;BME280;46498;49.968;7.754;2023-06-26T06:32:15;-19066.00;;;24.78;nan
28606;BME280;46498;49.968;7.754;2023-06-26T06:37:16;-19071.00;;;24.94;nan
28606;BME280;46498;49.968;7.754;2023-06-26T06:42:17;-19060.00;;;24.59;nan
28606;BME280;46498;49.968;7.754;2023-06-26T06:47:17;-19045.00;;;24.11;nan
28606;BME280;46498;49.968;7.754;2023-06-26T06:52:18;-19042.00;;;24.01;nan
28606;BME280;46498;49.968;7.754;2023-06-26T06:57:20;-19032.00;;;23.71;nan
28606;BME280;46498;49.968;7.754;2023-06-26T07:02:21;-19032.00;;;23.69;nan
28606;BME280;46498;49.968;7.754;2023-06-26T07:07:22;-19027.00;;;23.56;nan
28606;BME280;46498;49.968;7.754;2023-06-26T07:12:23;-19020.00;;;23.33;nan
28606;BME280;46498;49.968;7.754;2023-06-26T07:17:24;-19003.00;;;22.80;nan
28606;BME280;46498;49.968;7.754;2023-06-26T07:22:24;-18998.00;;;22.62;nan
28606;BME280;46498;49.968;7.754;2023-06-26T07:27:25;-19007.00;;;22.90;nan
28606;BME280;46498;49.968;7.754;2023-06-26T07:32:26;-19006.00;;;22.88;nan
28606;BME280;46498;49.968;7.754;2023-06-26T07:37:27;-19024.00;;;23.44;nan
28606;BME280;46498;49.968;7.754;2023-06-26T07:42:28;-19038.00;;;23.91;nan
28606;BME280;46498;49.968;7.754;2023-06-26T07:47:29;-19063.00;;;24.67;nan
28606;BME280;46498;49.968;7.754;2023-06-26T07:52:30;-19056.00;;;24.46;nan
28606;BME280;46498;49.968;7.754;2023-06-26T07:57:30;-19042.00;;;24.02;nan
28606;BME280;46498;49.968;7.754;2023-06-26T08:02:32;-19055.00;;;24.42;nan
28606;BME280;46498;49.968;7.754;2023-06-26T08:07:33;-19051.00;;;24.30;nan
28606;BME280;46498;49.968;7.754;2023-06-26T08:12:34;-19036.00;;;23.84;nan
28606;BME280;46498;49.968;7.754;2023-06-26T08:17:37;-19033.00;;;23.73;nan
28606;BME280;46498;49.968;7.754;2023-06-26T08:22:39;-19052.00;;;24.33;nan
28606;BME280;46498;49.968;7.754;2023-06-26T08:27:40;-19071.00;;;24.95;nan
28606;BME280;46498;49.968;7.754;2023-06-26T08:32:41;-19093.00;;;25.63;nan
28606;BME280;46498;49.968;7.754;2023-06-26T08:37:42;-19078.00;;;25.16;nan
28606;BME280;46498;49.968;7.754;2023-06-26T08:42:42;-19069.00;;;24.87;nan
28606;BME280;46498;49.968;7.754;2023-06-26T08:47:43;-19076.00;;;25.10;nan
28606;BME280;46498;49.968;7.754;2023-06-26T08:52:47;-19079.00;;;25.19;nan
28606;BME280;46498;49.968;7.754;2023-06-26T08:57:53;-19088.00;;;25.46;nan
28606;BME280;46498;49.968;7.754;2023-06-26T09:02:54;-19095.00;;;25.68;nan
28606;BME280;46498;49.968;7.754;2023-06-26T09:07:56;-19099.00;;;25.81;nan
28606;BME280;46498;49.968;7.754;2023-06-26T09:12:59;-19095.00;;;25.69;nan
28606;BME280;46498;49.968;7.754;2023-06-26T09:18:02;-19094.00;;;25.65;nan
28606;BME280;46498;49.968;7.754;2023-06-26T09:23:05;-19091.00;;;25.58;nan
28606;BME280;46498;49.968;7.754;2023-06-26T09:28:06;-19103.00;;;25.93;nan
28606;BME280;46498;49.968;7.754;2023-06-26T09:33:14;-19108.00;;;26.10;nan
28606;BME280;46498;49.968;7.754;2023-06-26T09:38:16;-19113.00;;;26.27;nan
28606;BME280;46498;49.968;7.754;2023-06-26T09:43:18;-19119.00;;;26.45;nan
28606;BME280;46498;49.968;7.754;2023-06-26T09:48:19;-19115.00;;;26.34;nan
28606;BME280;46498;49.968;7.754;2023-06-26T09:53:20;-19126.00;;;26.68;nan
28606;BME280;46498;49.968;7.754;2023-06-26T09:58:21;-19141.00;;;27.14;nan
28606;BME280;46498;49.968;7.754;2023-06-26T10:03:24;-19148.00;;;27.38;nan
28606;BME280;46498;49.968;7.754;2023-06-26T10:08:25;-19150.00;;;27.44;nan
28606;BME280;46498;49.968;7.754;2023-06-26T10:13:28;-19159.00;;;27.70;nan
28606;BME280;46498;49.968;7.754;2023-06-26T10:18:30;-19151.00;;;27.45;nan
28606;BME280;46498;49.968;7.754;2023-06-26T10:23:32;-19129.00;;;26.77;nan
28606;BME280;46498;49.968;7.754;2023-06-26T10:28:35;-19125.00;;;26.64;nan
28606;BME280;46498;49.968;7.754;2023-06-26T10:33:36;-19126.00;;;26.66;nan
28606;BME280;46498;49.968;7.754;2023-06-26T10:38:54;-19124.00;;;26.62;nan
28606;BME280;46498;49.968;7.754;2023-06-26T10:49:14;-19148.00;;;27.38;nan
28606;BME280;46498;49.968;7.754;2023-06-26T10:54:16;-19166.00;;;27.94;nan
28606;BME280;46498;49.968;7.754;2023-06-26T10:59:21;-19173.00;;;28.16;nan
28606;BME280;46498;49.968;7.754;2023-06-26T11:04:43;-19147.00;;;27.33;nan
28606;BME280;46498;49.968;7.754;2023-06-26T11:09:54;-19150.00;;;27.42;nan
28606;BME280;46498;49.968;7.754;2023-06-26T11:14:55;-19134.00;;;26.92;nan
28606;BME280;46498;49.968;7.754;2023-06-26T11:19:56;-19152.00;;;27.50;nan
28606;BME280;46498;49.968;7.754;2023-06-26T11:24:59;-19168.00;;;28.00;nan
28606;BME280;46498;49.968;7.754;2023-06-26T11:30:00;-19165.00;;;27.91;nan
28606;BME280;46498;49.968;7.754;2023-06-26T11:35:01;-19151.00;;;27.47;nan
28606;BME280;46498;49.968;7.754;2023-06-26T11:40:17;-19152.00;;;27.49;nan
28606;BME280;46498;49.968;7.754;2023-06-26T11:45:19;-19148.00;;;27.38;nan
28606;BME280;46498;49.968;7.754;2023-06-26T11:50:20;-19148.00;;;27.37;nan
28606;BME280;46498;49.968;7.754;2023-06-26T11:55:22;-19148.00;;;27.36;nan
28606;BME280;46498;49.968;7.754;2023-06-26T12:00:23;-19153.00;;;27.53;nan
28606;BME280;46498;49.968;7.754;2023-06-26T12:05:25;-19164.00;;;27.86;nan
28606;BME280;46498;49.968;7.754;2023-06-26T12:10:26;-19183.00;;;28.47;nan
28606;BME280;46498;49.968;7.754;2023-06-26T12:15:27;-19193.00;;;28.79;nan
28606;BME280;46498;49.968;7.754;2023-06-26T12:20:28;-19166.00;;;27.93;nan
28606;BME280;46498;49.968;7.754;2023-06-26T12:25:32;-19155.00;;;27.57;nan
28606;BME280;46498;49.968;7.754;2023-06-26T12:30:33;-19133.00;;;26.88;nan
28606;BME280;46498;49.968;7.754;2023-06-26T12:35:34;-19146.00;;;27.29;nan
28606;BME280;46498;49.968;7.754;2023-06-26T12:40:35;-19139.00;;;27.09;nan
28606;BME280;46498;49.968;7.754;2023-06-26T12:45:45;-19129.00;;;26.78;nan
28606;BME280;46498;49.968;7.754;2023-06-26T12:50:45;-19142.00;;;27.19;nan
28606;BME280;46498;49.968;7.754;2023-06-26T12:55:47;-19141.00;;;27.13;nan
28606;BME280;46498;49.968;7.754;2023-06-26T13:00:47;-19122.00;;;26.54;nan
28606;BME280;46498;49.968;7.754;2023-06-26T13:05:48;-19120.00;;;26.47;nan
28606;BME280;46498;49.968;7.754;2023-06-26T13:10:49;-19132.00;;;26.86;nan
28606;BME280;46498;49.968;7.754;2023-06-26T13:15:50;-19123.00;;;26.57;nan
28606;BME280;46498;49.968;7.754;2023-06-26T13:20:51;-19128.00;;;26.74;nan
28606;BME280;46498;49.968;7.754;2023-06-26T13:25:51;-19131.00;;;26.82;nan
28606;BME280;46498;49.968;7.754;2023-06-26T13:30:53;-19137.00;;;27.01;nan
28606;BME280;46498;49.968;7.754;2023-06-26T13:35:55;-19137.00;;;27.00;nan
28606;BME280;46498;49.968;7.754;2023-06-26T13:40:56;-19132.00;;;26.86;nan
28606;BME280;46498;49.968;7.754;2023-06-26T13:46:01;-19130.00;;;26.79;nan
28606;BME280;46498;49.968;7.754;2023-06-26T13:51:03;-19123.00;;;26.58;nan
28606;BME280;46498;49.968;7.754;2023-06-26T13:56:04;-19126.00;;;26.67;nan
28606;BME280;46498;49.968;7.754;2023-06-26T14:01:05;-19143.00;;;27.21;nan
28606;BME280;46498;49.968;7.754;2023-06-26T14:06:06;-19120.00;;;26.48;nan
28606;BME280;46498;49.968;7.754;2023-06-26T14:11:06;-19114.00;;;26.30;nan
28606;BME280;46498;49.968;7.754;2023-06-26T14:16:07;-19120.00;;;26.49;nan
28606;BME280;46498;49.968;7.754;2023-06-26T14:21:08;-19126.00;;;26.68;nan
28606;BME280;46498;49.968;7.754;2023-06-26T14:26:10;-19110.00;;;26.16;nan
28606;BME280;46498;49.968;7.754;2023-06-26T14:31:11;-19111.00;;;26.20;nan
28606;BME280;46498;49.968;7.754;2023-06-26T14:36:12;-19100.00;;;25.86;nan
28606;BME280;46498;49.968;7.754;2023-06-26T14:41:13;-19101.00;;;25.89;nan
28606;BME280;46498;49.968;7.754;2023-06-26T14:46:14;-19103.00;;;25.95;nan
28606;BME280;46498;49.968;7.754;2023-06-26T14:51:15;-19112.00;;;26.22;nan
28606;BME280;46498;49.968;7.754;2023-06-26T14:56:16;-19116.00;;;26.34;nan
28606;BME280;46498;49.968;7.754;2023-06-26T15:01:16;-19116.00;;;26.37;nan
28606;BME280;46498;49.968;7.754;2023-06-26T15:06:17;-19101.00;;;25.88;nan
28606;BME280;46498;49.968;7.754;2023-06-26T15:11:18;-19089.00;;;25.51;nan
28606;BME280;46498;49.968;7.754;2023-06-26T15:16:19;-19091.00;;;25.57;nan
28606;BME280;46498;49.968;7.754;2023-06-26T15:21:21;-19114.00;;;26.28;nan
28606;BME280;46498;49.968;7.754;2023-06-26T15:26:22;-19107.00;;;26.08;nan
28606;BME280;46498;49.968;7.754;2023-06-26T15:31:23;-19107.00;;;26.07;nan
28606;BME280;46498;49.968;7.754;2023-06-26T15:36:25;-19099.00;;;25.82;nan
28606;BME280;46498;49.968;7.754;2023-06-26T15:41:26;-19094.00;;;25.66;nan
28606;BME280;46498;49.968;7.754;2023-06-26T15:46:27;-19092.00;;;25.61;nan
28606;BME280;46498;49.968;7.754;2023-06-26T15:51:27;-19076.00;;;25.09;nan
28606;BME280;46498;49.968;7.754;2023-06-26T15:56:28;-19075.00;;;25.05;nan
28606;BME280;46498;49.968;7.754;2023-06-26T16:01:29;-19078.00;;;25.16;nan
28606;BME280;46498;49.968;7.754;2023-06-26T16:06:30;-19075.00;;;25.05;nan
28606;BME280;46498;49.968;7.754;2023-06-26T16:11:55;-19071.00;;;24.94;33.50
28606;BME280;46498;49.968;7.754;2023-06-26T16:16:56;-19062.00;;;24.64;33.41
28606;BME280;46498;49.968;7.754;2023-06-26T16:21:57;-19054.00;;;24.40;33.44
28606;BME280;46498;49.968;7.754;2023-06-26T16:26:58;-19048.00;;;24.21;33.45
28606;BME280;46498;49.968;7.754;2023-06-26T16:31:59;-19057.00;;;24.50;34.05
28606;BME280;46498;49.968;7.754;2023-06-26T16:37:00;-19056.00;;;24.45;33.50
28606;BME280;46498;49.968;7.754;2023-06-26T16:42:07;-19054.00;;;24.41;33.44
28606;BME280;46498;49.968;7.754;2023-06-26T16:47:08;-19049.00;;;24.24;33.46
28606;BME280;46498;49.968;7.754;2023-06-26T16:52:09;-19035.00;;;23.81;34.37
28606;BME280;46498;49.968;7.754;2023-06-26T16:57:10;-19039.00;;;23.91;34.66
28606;BME280;46498;49.968;7.754;2023-06-26T17:02:11;-19026.00;;;23.52;34.41
28606;BME280;46498;49.968;7.754;2023-06-26T17:07:12;-19025.00;;;23.48;34.57
28606;BME280;46498;49.968;7.754;2023-06-26T17:12:13;-19030.00;;;23.63;34.81
28606;BME280;46498;49.968;7.754;2023-06-26T17:17:14;-19034.00;;;23.76;34.58
28606;BME280;46498;49.968;7.754;2023-06-26T17:22:18;-19010.00;;;23.01;35.54
28606;BME280;46498;49.968;7.754;2023-06-26T17:27:19;-19004.00;;;22.81;35.59
28606;BME280;46498;49.968;7.754;2023-06-26T17:32:25;-18995.00;;;22.52;36.57
28606;BME280;46498;49.968;7.754;2023-06-26T17:37:26;-18993.00;;;22.47;36.74
28606;BME280;46498;49.968;7.754;2023-06-26T17:42:28;-18990.00;;;22.37;35.82
28606;BME280;46498;49.968;7.754;2023-06-26T17:47:28;-18982.00;;;22.12;36.58
28606;BME280;46498;49.968;7.754;2023-06-26T17:52:29;-18984.00;;;22.18;36.70
28606;BME280;46498;49.968;7.754;2023-06-26T17:57:30;-18979.00;;;22.04;36.51
28606;BME280;46498;49.968;7.754;2023-06-26T18:02:31;-18977.00;;;21.97;37.25
28606;BME280;46498;49.968;7.754;2023-06-26T18:07:32;-18977.00;;;21.96;37.82
28606;BME280;46498;49.968;7.754;2023-06-26T18:12:33;-18974.00;;;21.88;37.23
28606;BME280;46498;49.968;7.754;2023-06-26T18:17:34;-18965.00;;;21.58;38.02
28606;BME280;46498;49.968;7.754;2023-06-26T18:22:36;-18967.00;;;21.65;38.74
28606;BME280;46498;49.968;7.754;2023-06-26T18:27:39;-18967.00;;;21.66;39.29
28606;BME280;46498;49.968;7.754;2023-06-26T18:32:41;-18964.00;;;21.56;38.89
28606;BME280;46498;49.968;7.754;2023-06-26T18:37:42;-18958.00;;;21.38;38.70
28606;BME280;46498;49.968;7.754;2023-06-26T18:42:43;-18955.00;;;21.28;38.69
28606;BME280;46498;49.968;7.754;2023-06-26T18:47:44;-18948.00;;;21.07;38.87
28606;BME280;46498;49.968;7.754;2023-06-26T18:52:45;-18947.00;;;21.02;39.19
28606;BME280;46498;49.968;7.754;2023-06-26T18:57:48;-18945.00;;;20.96;39.53
28606;BME280;46498;49.968;7.754;2023-06-26T19:02:49;-18945.00;;;20.95;39.85
28606;BME280;46498;49.968;7.754;2023-06-26T19:07:51;-18942.00;;;20.88;39.76
28606;BME280;46498;49.968;7.754;2023-06-26T19:12:52;-18935.00;;;20.64;40.01
28606;BME280;46498;49.968;7.754;2023-06-26T19:17:54;-18936.00;;;20.67;40.22
28606;BME280;46498;49.968;7.754;2023-06-26T19:22:55;-18927.00;;;20.39;40.26
28606;BME280;46498;49.968;7.754;2023-06-26T19:27:56;-18921.00;;;20.20;40.58
28606;BME280;46498;49.968;7.754;2023-06-26T19:32:57;-18921.00;;;20.20;40.54
28606;BME280;46498;49.968;7.754;2023-06-26T19:37:58;-18920.00;;;20.17;41.58
28606;BME280;46498;49.968;7.754;2023-06-26T19:43:06;-18919.00;;;20.15;41.56
28606;BME280;46498;49.968;7.754;2023-06-26T19:48:07;-18916.00;;;20.06;41.77
28606;BME280;46498;49.968;7.754;2023-06-26T19:53:08;-18916.00;;;20.06;41.69
28606;BME280;46498;49.968;7.754;2023-06-26T19:58:09;-18911.00;;;19.89;41.92
28606;BME280;46498;49.968;7.754;2023-06-26T20:03:10;-18909.00;;;19.82;42.47
28606;BME280;46498;49.968;7.754;2023-06-26T20:08:11;-18908.00;;;19.80;42.65
28606;BME280;46498;49.968;7.754;2023-06-26T20:13:12;-18904.00;;;19.66;42.83
28606;BME280;46498;49.968;7.754;2023-06-26T20:18:13;-18897.00;;;19.44;43.30
28606;BME280;46498;49.968;7.754;2023-06-26T20:23:13;-18896.00;;;19.41;43.71
28606;BME280;46498;49.968;7.754;2023-06-26T20:28:14;-18899.00;;;19.50;44.85
28606;BME280;46498;49.968;7.754;2023-06-26T20:33:15;-18899.00;;;19.51;44.40
28606;BME280;46498;49.968;7.754;2023-06-26T20:38:16;-18897.00;;;19.46;45.19
28606;BME280;46498;49.968;7.754;2023-06-26T20:43:17;-18894.00;;;19.34;45.53
28606;BME280;46498;49.968;7.754;2023-06-26T20:48:18;-18888.00;;;19.16;45.94
28606;BME280;46498;49.968;7.754;2023-06-26T20:53:19;-18881.00;;;18.95;46.46
28606;BME280;46498;49.968;7.754;2023-06-26T20:58:20;-18874.00;;;18.73;47.01
28606;BME280;46498;49.968;7.754;2023-06-26T21:03:20;-18872.00;;;18.67;47.37
28606;BME280;46498;49.968;7.754;2023-06-26T21:08:22;-18875.00;;;18.77;47.60
28606;BME280;46498;49.968;7.754;2023-06-26T21:13:22;-18873.00;;;18.70;47.29
28606;BME280;46498;49.968;7.754;2023-06-26T21:18:23;-18868.00;;;18.53;47.54
28606;BME280;46498;49.968;7.754;2023-06-26T21:23:25;-18865.00;;;18.44;47.50
28606;BME280;46498;49.968;7.754;2023-06-26T21:28:26;-18860.00;;;18.30;47.55
28606;BME280;46498;49.968;7.754;2023-06-26T21:33:26;-18857.00;;;18.18;48.28
28606;BME280;46498;49.968;7.754;2023-06-26T21:38:28;-18855.00;;;18.14;47.96
28606;BME280;46498;49.968;7.754;2023-06-26T21:43:28;-18852.00;;;18.04;48.71
28606;BME280;46498;49.968;7.754;2023-06-26T21:48:29;-18854.00;;;18.11;48.63
28606;BME280;46498;49.968;7.754;2023-06-26T21:53:30;-18850.00;;;17.98;48.88
28606;BME280;46498;49.968;7.754;2023-06-26T21:58:31;-18849.00;;;17.92;49.10
28606;BME280;46498;49.968;7.754;2023-06-26T22:03:32;-18845.00;;;17.81;49.44
28606;BME280;46498;49.968;7.754;2023-06-26T22:08:33;-18845.00;;;17.81;49.76
28606;BME280;46498;49.968;7.754;2023-06-26T22:13:33;-18841.00;;;17.70;50.51
28606;BME280;46498;49.968;7.754;2023-06-26T22:18:34;-18840.00;;;17.65;51.11
28606;BME280;46498;49.968;7.754;2023-06-26T22:23:35;-18839.00;;;17.64;51.16
28606;BME280;46498;49.968;7.754;2023-06-26T22:28:36;-18835.00;;;17.50;52.14
28606;BME280;46498;49.968;7.754;2023-06-26T22:33:37;-18833.00;;;17.45;53.28
28606;BME280;46498;49.968;7.754;2023-06-26T22:38:38;-18836.00;;;17.52;53.37
28606;BME280;46498;49.968;7.754;2023-06-26T22:43:39;-18834.00;;;17.48;53.68
28606;BME280;46498;49.968;7.754;2023-06-26T22:48:40;-18831.00;;;17.37;53.83
28606;BME280;46498;49.968;7.754;2023-06-26T22:53:41;-18831.00;;;17.37;54.37
28606;BME280;46498;49.968;7.754;2023-06-26T22:58:42;-18828.00;;;17.29;54.96
28606;BME280;46498;49.968;7.754;2023-06-26T23:03:42;-18825.00;;;17.19;55.78
28606;BME280;46498;49.968;7.754;2023-06-26T23:08:43;-18826.00;;;17.20;55.41
28606;BME280;46498;49.968;7.754;2023-06-26T23:13:44;-18826.00;;;17.21;55.05
28606;BME280;46498;49.968;7.754;2023-06-26T23:18:45;-18825.00;;;17.18;55.65
28606;BME280;46498;49.968;7.754;2023-06-26T23:23:46;-18824.00;;;17.16;55.57
28606;BME280;46498;49.968;7.754;2023-06-26T23:28:47;-18822.00;;;17.09;55.81
28606;BME280;46498;49.968;7.754;2023-06-26T23:33:48;-18822.00;;;17.08;54.87
28606;BME280;46498;49.968;7.754;2023-06-26T23:38:49;-18819.00;;;17.00;54.85
28606;BME280;46498;49.968;7.754;2023-06-26T23:43:50;-18817.00;;;16.92;55.24
28606;BME280;46498;49.968;7.754;2023-06-26T23:48:52;-18811.00;;;16.74;57.16
28606;BME280;46498;49.968;7.754;2023-06-26T23:53:53;-18807.00;;;16.63;58.71
28606;BME280;46498;49.968;7.754;2023-06-26T23:58:53;-18806.00;;;16.59;59.36
